sensor_id;sensor_type;location;lat;lon;timestamp;temperature;humidity
16412;DHT22;8315;52.104;6.304;2023-02-21T00:01:47;9.30;98.40
16412;DHT22;8315;52.104;6.304;2023-02-21T00:04:32;9.30;98.40
16412;DHT22;8315;52.104;6.304;2023-02-21T00:07:16;9.30;98.40
16412;DHT22;8315;52.104;6.304;2023-02-21T00:10:02;9.30;98.40
16412;DHT22;8315;52.104;6.304;2023-02-21T00:12:47;9.30;98.40
16412;DHT22;8315;52.104;6.304;2023-02-21T00:15:32;9.30;98.40
16412;DHT22;8315;52.104;6.304;2023-02-21T00:18:16;9.30;98.40
16412;DHT22;8315;52.104;6.304;2023-02-21T00:21:01;9.30;98.40
16412;DHT22;8315;52.104;6.304;2023-02-21T00:23:45;9.30;98.40
16412;DHT22;8315;52.104;6.304;2023-02-21T00:26:31;9.30;98.40
16412;DHT22;8315;52.104;6.304;2023-02-21T00:29:16;9.30;98.40
16412;DHT22;8315;52.104;6.304;2023-02-21T00:32:01;9.20;98.40
16412;DHT22;8315;52.104;6.304;2023-02-21T00:34:45;9.30;98.40
16412;DHT22;8315;52.104;6.304;2023-02-21T00:37:30;9.30;98.40
16412;DHT22;8315;52.104;6.304;2023-02-21T00:40:15;9.30;98.40
16412;DHT22;8315;52.104;6.304;2023-02-21T00:43:01;9.30;98.40
16412;DHT22;8315;52.104;6.304;2023-02-21T00:45:45;9.30;98.40
16412;DHT22;8315;52.104;6.304;2023-02-21T00:48:30;9.30;98.40
16412;DHT22;8315;52.104;6.304;2023-02-21T00:51:14;9.30;98.40
16412;DHT22;8315;52.104;6.304;2023-02-21T00:54:00;9.20;98.40
16412;DHT22;8315;52.104;6.304;2023-02-21T00:56:45;9.20;98.40
16412;DHT22;8315;52.104;6.304;2023-02-21T00:59:30;9.20;98.40
16412;DHT22;8315;52.104;6.304;2023-02-21T01:02:14;9.30;98.40
16412;DHT22;8315;52.104;6.304;2023-02-21T01:04:59;9.30;98.40
16412;DHT22;8315;52.104;6.304;2023-02-21T01:07:44;9.20;98.40
16412;DHT22;8315;52.104;6.304;2023-02-21T01:10:28;9.20;98.40
16412;DHT22;8315;52.104;6.304;2023-02-21T01:13:13;9.20;98.40
16412;DHT22;8315;52.104;6.304;2023-02-21T01:15:59;9.20;98.40
16412;DHT22;8315;52.104;6.304;2023-02-21T01:18:45;9.20;98.40
16412;DHT22;8315;52.104;6.304;2023-02-21T01:21:30;9.20;98.40
16412;DHT22;8315;52.104;6.304;2023-02-21T01:24:15;9.20;98.40
16412;DHT22;8315;52.104;6.304;2023-02-21T01:26:59;9.20;98.40
16412;DHT22;8315;52.104;6.304;2023-02-21T01:29:44;9.20;98.40
16412;DHT22;8315;52.104;6.304;2023-02-21T01:32:29;9.20;98.40
16412;DHT22;8315;52.104;6.304;2023-02-21T01:35:14;9.20;98.40
16412;DHT22;8315;52.104;6.304;2023-02-21T01:37:59;9.20;98.40
16412;DHT22;8315;52.104;6.304;2023-02-21T01:40:43;9.20;98.40
16412;DHT22;8315;52.104;6.304;2023-02-21T01:43:28;9.20;98.40
16412;DHT22;8315;52.104;6.304;2023-02-21T01:46:12;9.20;98.40
16412;DHT22;8315;52.104;6.304;2023-02-21T01:49:03;9.20;98.40
16412;DHT22;8315;52.104;6.304;2023-02-21T01:51:49;9.20;98.40
16412;DHT22;8315;52.104;6.304;2023-02-21T01:54:35;9.20;98.40
16412;DHT22;8315;52.104;6.304;2023-02-21T01:57:21;9.20;98.40
16412;DHT22;8315;52.104;6.304;2023-02-21T02:00:07;9.20;98.40
16412;DHT22;8315;52.104;6.304;2023-02-21T02:02:54;9.20;98.40
16412;DHT22;8315;52.104;6.304;2023-02-21T02:05:42;9.20;98.40
16412;DHT22;8315;52.104;6.304;2023-02-21T02:08:28;9.20;98.40
16412;DHT22;8315;52.104;6.304;2023-02-21T02:11:18;9.20;98.40
16412;DHT22;8315;52.104;6.304;2023-02-21T02:14:26;9.20;98.40
16412;DHT22;8315;52.104;6.304;2023-02-21T02:17:10;9.20;98.40
16412;DHT22;8315;52.104;6.304;2023-02-21T02:19:48;9.20;98.40
16412;DHT22;8315;52.104;6.304;2023-02-21T02:22:34;9.20;98.40
16412;DHT22;8315;52.104;6.304;2023-02-21T02:25:11;9.20;98.40
16412;DHT22;8315;52.104;6.304;2023-02-21T02:27:47;9.10;98.40
16412;DHT22;8315;52.104;6.304;2023-02-21T02:36:24;9.20;98.40
16412;DHT22;8315;52.104;6.304;2023-02-21T02:38:55;9.20;98.40
16412;DHT22;8315;52.104;6.304;2023-02-21T02:41:26;9.20;98.40
16412;DHT22;8315;52.104;6.304;2023-02-21T02:43:58;9.20;98.40
16412;DHT22;8315;52.104;6.304;2023-02-21T02:46:31;9.20;98.40
16412;DHT22;8315;52.104;6.304;2023-02-21T02:49:01;9.20;98.40
16412;DHT22;8315;52.104;6.304;2023-02-21T02:51:30;9.20;98.40
16412;DHT22;8315;52.104;6.304;2023-02-21T02:54:00;9.20;98.40
16412;DHT22;8315;52.104;6.304;2023-02-21T02:56:27;9.20;98.40
16412;DHT22;8315;52.104;6.304;2023-02-21T02:58:57;9.20;98.40
16412;DHT22;8315;52.104;6.304;2023-02-21T03:01:35;9.20;98.40
16412;DHT22;8315;52.104;6.304;2023-02-21T03:04:25;9.20;98.40
16412;DHT22;8315;52.104;6.304;2023-02-21T03:07:02;9.20;98.40
16412;DHT22;8315;52.104;6.304;2023-02-21T03:09:36;9.20;98.40
16412;DHT22;8315;52.104;6.304;2023-02-21T03:12:07;9.10;98.40
16412;DHT22;8315;52.104;6.304;2023-02-21T03:14:37;9.10;98.40
16412;DHT22;8315;52.104;6.304;2023-02-21T03:17:08;9.10;98.40
16412;DHT22;8315;52.104;6.304;2023-02-21T03:19:37;9.10;98.40
16412;DHT22;8315;52.104;6.304;2023-02-21T03:22:08;9.10;98.40
16412;DHT22;8315;52.104;6.304;2023-02-21T03:24:37;9.10;98.40
16412;DHT22;8315;52.104;6.304;2023-02-21T03:27:05;9.10;98.40
16412;DHT22;8315;52.104;6.304;2023-02-21T03:29:55;9.20;98.40
16412;DHT22;8315;52.104;6.304;2023-02-21T03:32:25;9.10;98.40
16412;DHT22;8315;52.104;6.304;2023-02-21T03:34:54;9.20;98.40
16412;DHT22;8315;52.104;6.304;2023-02-21T03:37:29;9.20;98.40
16412;DHT22;8315;52.104;6.304;2023-02-21T03:39:57;9.10;98.40
16412;DHT22;8315;52.104;6.304;2023-02-21T03:42:24;9.10;98.40
16412;DHT22;8315;52.104;6.304;2023-02-21T03:44:50;9.10;98.40
16412;DHT22;8315;52.104;6.304;2023-02-21T03:47:18;9.10;98.40
16412;DHT22;8315;52.104;6.304;2023-02-21T03:49:45;9.10;98.40
16412;DHT22;8315;52.104;6.304;2023-02-21T03:52:12;9.10;98.40
16412;DHT22;8315;52.104;6.304;2023-02-21T03:54:41;9.10;98.40
16412;DHT22;8315;52.104;6.304;2023-02-21T03:57:13;9.10;98.40
16412;DHT22;8315;52.104;6.304;2023-02-21T03:59:43;9.10;98.40
16412;DHT22;8315;52.104;6.304;2023-02-21T04:02:12;9.10;98.40
16412;DHT22;8315;52.104;6.304;2023-02-21T04:04:39;9.10;98.40
16412;DHT22;8315;52.104;6.304;2023-02-21T04:07:09;9.10;98.40
16412;DHT22;8315;52.104;6.304;2023-02-21T04:09:37;9.10;98.40
16412;DHT22;8315;52.104;6.304;2023-02-21T04:12:06;9.10;98.40
16412;DHT22;8315;52.104;6.304;2023-02-21T04:14:35;9.10;98.40
16412;DHT22;8315;52.104;6.304;2023-02-21T04:17:02;9.10;98.40
16412;DHT22;8315;52.104;6.304;2023-02-21T04:19:29;9.10;98.40
16412;DHT22;8315;52.104;6.304;2023-02-21T04:21:56;9.10;98.40
16412;DHT22;8315;52.104;6.304;2023-02-21T04:24:24;9.10;98.40
16412;DHT22;8315;52.104;6.304;2023-02-21T04:26:51;9.10;98.40
16412;DHT22;8315;52.104;6.304;2023-02-21T04:29:19;9.10;98.40
16412;DHT22;8315;52.104;6.304;2023-02-21T04:31:46;9.10;98.40
16412;DHT22;8315;52.104;6.304;2023-02-21T04:34:15;9.10;98.40
16412;DHT22;8315;52.104;6.304;2023-02-21T04:36:44;9.20;98.40
16412;DHT22;8315;52.104;6.304;2023-02-21T04:39:11;9.10;98.40
16412;DHT22;8315;52.104;6.304;2023-02-21T04:41:39;9.20;98.40
16412;DHT22;8315;52.104;6.304;2023-02-21T04:44:07;9.10;98.40
16412;DHT22;8315;52.104;6.304;2023-02-21T04:46:35;9.20;98.40
16412;DHT22;8315;52.104;6.304;2023-02-21T04:49:02;9.10;98.40
16412;DHT22;8315;52.104;6.304;2023-02-21T04:51:29;9.10;98.40
16412;DHT22;8315;52.104;6.304;2023-02-21T04:53:56;9.20;98.40
16412;DHT22;8315;52.104;6.304;2023-02-21T04:56:24;9.20;98.40
16412;DHT22;8315;52.104;6.304;2023-02-21T04:58:52;9.20;98.40
16412;DHT22;8315;52.104;6.304;2023-02-21T05:01:19;9.20;98.40
16412;DHT22;8315;52.104;6.304;2023-02-21T05:03:48;9.20;98.40
16412;DHT22;8315;52.104;6.304;2023-02-21T05:06:16;9.10;98.40
16412;DHT22;8315;52.104;6.304;2023-02-21T05:08:43;9.10;98.40
16412;DHT22;8315;52.104;6.304;2023-02-21T05:11:10;9.10;98.40
16412;DHT22;8315;52.104;6.304;2023-02-21T05:13:37;9.10;98.40
16412;DHT22;8315;52.104;6.304;2023-02-21T05:16:04;9.00;98.40
16412;DHT22;8315;52.104;6.304;2023-02-21T05:18:31;9.00;98.40
16412;DHT22;8315;52.104;6.304;2023-02-21T05:21:00;9.00;98.40
16412;DHT22;8315;52.104;6.304;2023-02-21T05:23:27;9.00;98.40
16412;DHT22;8315;52.104;6.304;2023-02-21T05:25:59;9.00;98.40
16412;DHT22;8315;52.104;6.304;2023-02-21T05:28:26;9.00;98.40
16412;DHT22;8315;52.104;6.304;2023-02-21T05:30:53;9.00;98.40
16412;DHT22;8315;52.104;6.304;2023-02-21T05:33:20;9.00;98.40
16412;DHT22;8315;52.104;6.304;2023-02-21T05:35:48;9.00;98.40
16412;DHT22;8315;52.104;6.304;2023-02-21T05:38:17;9.00;98.40
16412;DHT22;8315;52.104;6.304;2023-02-21T05:40:44;9.00;98.40
16412;DHT22;8315;52.104;6.304;2023-02-21T05:43:11;9.00;98.40
16412;DHT22;8315;52.104;6.304;2023-02-21T05:45:38;9.00;98.40
16412;DHT22;8315;52.104;6.304;2023-02-21T05:48:05;9.00;98.40
16412;DHT22;8315;52.104;6.304;2023-02-21T05:50:32;9.00;98.40
16412;DHT22;8315;52.104;6.304;2023-02-21T05:52:59;9.00;98.40
16412;DHT22;8315;52.104;6.304;2023-02-21T05:55:27;9.00;98.40
16412;DHT22;8315;52.104;6.304;2023-02-21T05:57:54;9.00;98.40
16412;DHT22;8315;52.104;6.304;2023-02-21T06:00:22;9.00;98.40
16412;DHT22;8315;52.104;6.304;2023-02-21T06:02:50;9.00;98.40
16412;DHT22;8315;52.104;6.304;2023-02-21T06:05:18;9.00;98.40
16412;DHT22;8315;52.104;6.304;2023-02-21T06:07:45;9.00;98.40
16412;DHT22;8315;52.104;6.304;2023-02-21T06:10:13;9.00;98.40
16412;DHT22;8315;52.104;6.304;2023-02-21T06:12:41;9.00;98.40
16412;DHT22;8315;52.104;6.304;2023-02-21T06:15:08;9.10;98.40
16412;DHT22;8315;52.104;6.304;2023-02-21T06:17:37;9.10;98.40
16412;DHT22;8315;52.104;6.304;2023-02-21T06:20:05;9.10;98.40
16412;DHT22;8315;52.104;6.304;2023-02-21T06:22:32;9.00;98.40
16412;DHT22;8315;52.104;6.304;2023-02-21T06:24:59;9.00;98.40
16412;DHT22;8315;52.104;6.304;2023-02-21T06:27:26;9.00;98.40
16412;DHT22;8315;52.104;6.304;2023-02-21T06:29:54;9.00;98.40
16412;DHT22;8315;52.104;6.304;2023-02-21T06:32:21;9.10;98.40
16412;DHT22;8315;52.104;6.304;2023-02-21T06:34:48;9.10;98.40
16412;DHT22;8315;52.104;6.304;2023-02-21T06:37:16;9.10;98.40
16412;DHT22;8315;52.104;6.304;2023-02-21T06:39:43;9.10;98.40
16412;DHT22;8315;52.104;6.304;2023-02-21T06:42:11;9.00;98.40
16412;DHT22;8315;52.104;6.304;2023-02-21T06:44:39;9.00;98.40
16412;DHT22;8315;52.104;6.304;2023-02-21T06:47:07;9.00;98.40
16412;DHT22;8315;52.104;6.304;2023-02-21T06:49:34;9.00;98.40
16412;DHT22;8315;52.104;6.304;2023-02-21T06:52:00;9.00;98.40
16412;DHT22;8315;52.104;6.304;2023-02-21T06:54:28;9.00;98.40
16412;DHT22;8315;52.104;6.304;2023-02-21T06:56:55;8.90;98.40
16412;DHT22;8315;52.104;6.304;2023-02-21T06:59:23;8.90;98.40
16412;DHT22;8315;52.104;6.304;2023-02-21T07:01:50;8.90;98.40
16412;DHT22;8315;52.104;6.304;2023-02-21T07:04:18;8.90;98.40
16412;DHT22;8315;52.104;6.304;2023-02-21T07:06:45;8.90;98.40
16412;DHT22;8315;52.104;6.304;2023-02-21T07:09:12;8.90;98.40
16412;DHT22;8315;52.104;6.304;2023-02-21T07:11:39;8.90;98.40
16412;DHT22;8315;52.104;6.304;2023-02-21T07:14:06;8.90;98.40
16412;DHT22;8315;52.104;6.304;2023-02-21T07:16:33;8.90;98.40
16412;DHT22;8315;52.104;6.304;2023-02-21T07:18:59;8.80;98.40
16412;DHT22;8315;52.104;6.304;2023-02-21T07:21:28;8.90;98.40
16412;DHT22;8315;52.104;6.304;2023-02-21T07:23:54;8.80;98.40
16412;DHT22;8315;52.104;6.304;2023-02-21T07:26:22;8.80;98.40
16412;DHT22;8315;52.104;6.304;2023-02-21T07:28:49;8.80;98.40
16412;DHT22;8315;52.104;6.304;2023-02-21T07:31:16;8.80;98.40
16412;DHT22;8315;52.104;6.304;2023-02-21T07:33:44;8.80;98.40
16412;DHT22;8315;52.104;6.304;2023-02-21T07:36:11;8.80;98.40
16412;DHT22;8315;52.104;6.304;2023-02-21T07:38:39;8.80;98.40
16412;DHT22;8315;52.104;6.304;2023-02-21T07:41:07;8.90;98.40
16412;DHT22;8315;52.104;6.304;2023-02-21T07:43:34;8.90;98.40
16412;DHT22;8315;52.104;6.304;2023-02-21T07:46:00;8.90;98.40
16412;DHT22;8315;52.104;6.304;2023-02-21T07:48:27;8.90;98.40
16412;DHT22;8315;52.104;6.304;2023-02-21T07:50:54;8.90;98.40
16412;DHT22;8315;52.104;6.304;2023-02-21T07:53:21;8.80;98.40
16412;DHT22;8315;52.104;6.304;2023-02-21T07:55:49;8.90;98.40
16412;DHT22;8315;52.104;6.304;2023-02-21T07:58:16;8.90;98.40
16412;DHT22;8315;52.104;6.304;2023-02-21T08:00:43;8.90;98.40
16412;DHT22;8315;52.104;6.304;2023-02-21T08:03:11;8.90;98.40
16412;DHT22;8315;52.104;6.304;2023-02-21T08:05:38;8.90;98.40
16412;DHT22;8315;52.104;6.304;2023-02-21T08:08:05;8.90;98.40
16412;DHT22;8315;52.104;6.304;2023-02-21T08:10:32;9.00;98.40
16412;DHT22;8315;52.104;6.304;2023-02-21T08:13:00;8.90;98.40
16412;DHT22;8315;52.104;6.304;2023-02-21T08:15:27;8.90;98.40
16412;DHT22;8315;52.104;6.304;2023-02-21T08:17:54;8.90;98.40
16412;DHT22;8315;52.104;6.304;2023-02-21T08:20:21;8.90;98.40
16412;DHT22;8315;52.104;6.304;2023-02-21T08:22:48;8.90;98.40
16412;DHT22;8315;52.104;6.304;2023-02-21T08:25:15;9.00;98.40
16412;DHT22;8315;52.104;6.304;2023-02-21T08:27:42;8.90;98.40
16412;DHT22;8315;52.104;6.304;2023-02-21T08:30:11;9.00;98.40
16412;DHT22;8315;52.104;6.304;2023-02-21T08:32:40;9.00;98.40
16412;DHT22;8315;52.104;6.304;2023-02-21T08:35:09;9.00;98.40
16412;DHT22;8315;52.104;6.304;2023-02-21T08:37:39;9.00;98.40
16412;DHT22;8315;52.104;6.304;2023-02-21T08:40:10;9.00;98.40
16412;DHT22;8315;52.104;6.304;2023-02-21T08:42:38;9.00;98.40
16412;DHT22;8315;52.104;6.304;2023-02-21T08:45:05;9.00;98.40
16412;DHT22;8315;52.104;6.304;2023-02-21T08:47:36;9.00;98.40
16412;DHT22;8315;52.104;6.304;2023-02-21T08:50:03;9.10;98.40
16412;DHT22;8315;52.104;6.304;2023-02-21T08:52:30;9.00;98.40
16412;DHT22;8315;52.104;6.304;2023-02-21T08:54:57;9.10;98.40
16412;DHT22;8315;52.104;6.304;2023-02-21T08:57:24;9.00;98.40
16412;DHT22;8315;52.104;6.304;2023-02-21T08:59:51;9.00;98.40
16412;DHT22;8315;52.104;6.304;2023-02-21T09:02:19;9.00;98.40
16412;DHT22;8315;52.104;6.304;2023-02-21T09:04:50;9.00;98.40
16412;DHT22;8315;52.104;6.304;2023-02-21T09:07:18;9.10;98.40
16412;DHT22;8315;52.104;6.304;2023-02-21T09:09:46;9.10;98.40
16412;DHT22;8315;52.104;6.304;2023-02-21T09:12:13;9.10;98.40
16412;DHT22;8315;52.104;6.304;2023-02-21T09:14:41;9.10;98.40
16412;DHT22;8315;52.104;6.304;2023-02-21T09:17:09;9.10;98.40
16412;DHT22;8315;52.104;6.304;2023-02-21T09:19:37;9.10;98.40
16412;DHT22;8315;52.104;6.304;2023-02-21T09:22:06;9.10;98.40
16412;DHT22;8315;52.104;6.304;2023-02-21T09:24:34;9.10;98.40
16412;DHT22;8315;52.104;6.304;2023-02-21T09:27:01;9.10;98.40
16412;DHT22;8315;52.104;6.304;2023-02-21T09:29:30;9.10;98.40
16412;DHT22;8315;52.104;6.304;2023-02-21T09:31:59;9.10;98.40
16412;DHT22;8315;52.104;6.304;2023-02-21T09:34:26;9.10;98.40
16412;DHT22;8315;52.104;6.304;2023-02-21T09:36:53;9.10;98.40
16412;DHT22;8315;52.104;6.304;2023-02-21T09:39:22;9.10;98.40
16412;DHT22;8315;52.104;6.304;2023-02-21T09:41:49;9.10;98.40
16412;DHT22;8315;52.104;6.304;2023-02-21T09:44:18;9.10;98.40
16412;DHT22;8315;52.104;6.304;2023-02-21T09:46:48;9.10;98.40
16412;DHT22;8315;52.104;6.304;2023-02-21T09:49:19;9.20;98.40
16412;DHT22;8315;52.104;6.304;2023-02-21T09:51:48;9.20;98.40
16412;DHT22;8315;52.104;6.304;2023-02-21T09:54:17;9.10;98.40
16412;DHT22;8315;52.104;6.304;2023-02-21T09:56:49;9.10;98.40
16412;DHT22;8315;52.104;6.304;2023-02-21T09:59:16;9.10;98.40
16412;DHT22;8315;52.104;6.304;2023-02-21T10:01:46;9.10;98.40
16412;DHT22;8315;52.104;6.304;2023-02-21T10:04:20;9.10;98.40
16412;DHT22;8315;52.104;6.304;2023-02-21T10:06:53;9.20;98.40
16412;DHT22;8315;52.104;6.304;2023-02-21T10:09:24;9.20;98.40
16412;DHT22;8315;52.104;6.304;2023-02-21T10:11:57;9.10;98.40
16412;DHT22;8315;52.104;6.304;2023-02-21T10:14:29;9.10;98.40
16412;DHT22;8315;52.104;6.304;2023-02-21T10:17:04;9.10;98.40
16412;DHT22;8315;52.104;6.304;2023-02-21T10:19:38;9.20;98.40
16412;DHT22;8315;52.104;6.304;2023-02-21T10:22:10;9.20;98.40
16412;DHT22;8315;52.104;6.304;2023-02-21T10:24:39;9.20;98.40
16412;DHT22;8315;52.104;6.304;2023-02-21T10:27:09;9.30;98.40
16412;DHT22;8315;52.104;6.304;2023-02-21T10:29:41;9.30;98.40
16412;DHT22;8315;52.104;6.304;2023-02-21T10:32:10;9.20;98.40
16412;DHT22;8315;52.104;6.304;2023-02-21T10:34:39;9.20;98.40
16412;DHT22;8315;52.104;6.304;2023-02-21T10:37:12;9.20;98.40
16412;DHT22;8315;52.104;6.304;2023-02-21T10:39:50;9.20;98.40
16412;DHT22;8315;52.104;6.304;2023-02-21T10:42:24;9.20;98.40
16412;DHT22;8315;52.104;6.304;2023-02-21T10:44:52;9.30;98.40
16412;DHT22;8315;52.104;6.304;2023-02-21T10:47:21;9.30;98.40
16412;DHT22;8315;52.104;6.304;2023-02-21T10:49:51;9.30;98.40
16412;DHT22;8315;52.104;6.304;2023-02-21T10:52:21;9.30;98.40
16412;DHT22;8315;52.104;6.304;2023-02-21T10:55:01;9.30;98.40
16412;DHT22;8315;52.104;6.304;2023-02-21T10:57:38;9.30;98.40
16412;DHT22;8315;52.104;6.304;2023-02-21T11:00:06;9.30;98.40
16412;DHT22;8315;52.104;6.304;2023-02-21T11:02:35;9.30;98.40
16412;DHT22;8315;52.104;6.304;2023-02-21T11:05:08;9.30;98.40
16412;DHT22;8315;52.104;6.304;2023-02-21T11:07:37;9.40;98.40
16412;DHT22;8315;52.104;6.304;2023-02-21T11:10:15;9.40;98.40
16412;DHT22;8315;52.104;6.304;2023-02-21T11:13:01;9.30;98.40
16412;DHT22;8315;52.104;6.304;2023-02-21T11:15:29;9.40;98.40
16412;DHT22;8315;52.104;6.304;2023-02-21T11:18:04;9.40;98.40
16412;DHT22;8315;52.104;6.304;2023-02-21T11:20:32;9.40;98.40
16412;DHT22;8315;52.104;6.304;2023-02-21T11:22:59;9.30;98.40
16412;DHT22;8315;52.104;6.304;2023-02-21T11:25:27;9.30;98.40
16412;DHT22;8315;52.104;6.304;2023-02-21T11:28:05;9.30;98.40
16412;DHT22;8315;52.104;6.304;2023-02-21T11:30:33;9.40;98.40
16412;DHT22;8315;52.104;6.304;2023-02-21T11:33:01;9.40;98.40
16412;DHT22;8315;52.104;6.304;2023-02-21T11:35:31;9.40;98.40
16412;DHT22;8315;52.104;6.304;2023-02-21T11:38:00;9.40;98.40
16412;DHT22;8315;52.104;6.304;2023-02-21T11:40:29;9.40;98.40
16412;DHT22;8315;52.104;6.304;2023-02-21T11:46:03;9.40;98.40
16412;DHT22;8315;52.104;6.304;2023-02-21T11:48:36;9.40;98.40
16412;DHT22;8315;52.104;6.304;2023-02-21T11:51:05;9.40;98.40
16412;DHT22;8315;52.104;6.304;2023-02-21T11:53:40;9.40;98.40
16412;DHT22;8315;52.104;6.304;2023-02-21T11:56:11;9.40;98.40
16412;DHT22;8315;52.104;6.304;2023-02-21T11:58:53;9.40;98.40
16412;DHT22;8315;52.104;6.304;2023-02-21T12:01:25;9.40;98.40
16412;DHT22;8315;52.104;6.304;2023-02-21T12:04:07;9.40;98.40
16412;DHT22;8315;52.104;6.304;2023-02-21T12:06:53;9.40;98.40
16412;DHT22;8315;52.104;6.304;2023-02-21T12:09:26;9.50;98.40
16412;DHT22;8315;52.104;6.304;2023-02-21T12:11:58;9.50;98.40
16412;DHT22;8315;52.104;6.304;2023-02-21T12:14:39;9.50;98.40
16412;DHT22;8315;52.104;6.304;2023-02-21T12:17:14;9.40;98.40
16412;DHT22;8315;52.104;6.304;2023-02-21T12:19:53;9.50;98.40
16412;DHT22;8315;52.104;6.304;2023-02-21T12:22:34;9.50;98.40
16412;DHT22;8315;52.104;6.304;2023-02-21T12:25:10;9.60;98.40
16412;DHT22;8315;52.104;6.304;2023-02-21T12:27:44;9.50;98.40
16412;DHT22;8315;52.104;6.304;2023-02-21T12:30:23;9.50;98.40
16412;DHT22;8315;52.104;6.304;2023-02-21T12:32:57;9.50;98.40
16412;DHT22;8315;52.104;6.304;2023-02-21T12:35:44;9.60;98.40
16412;DHT22;8315;52.104;6.304;2023-02-21T12:38:24;9.60;98.40
16412;DHT22;8315;52.104;6.304;2023-02-21T12:40:57;9.60;98.40
16412;DHT22;8315;52.104;6.304;2023-02-21T12:43:33;9.60;98.40
16412;DHT22;8315;52.104;6.304;2023-02-21T12:46:06;9.60;98.40
16412;DHT22;8315;52.104;6.304;2023-02-21T12:48:38;9.50;98.40
16412;DHT22;8315;52.104;6.304;2023-02-21T12:51:08;9.50;98.40
16412;DHT22;8315;52.104;6.304;2023-02-21T12:53:40;9.60;98.40
16412;DHT22;8315;52.104;6.304;2023-02-21T12:56:09;9.60;98.40
16412;DHT22;8315;52.104;6.304;2023-02-21T12:58:39;9.60;98.40
16412;DHT22;8315;52.104;6.304;2023-02-21T13:01:11;9.60;98.40
16412;DHT22;8315;52.104;6.304;2023-02-21T13:03:45;9.60;98.40
16412;DHT22;8315;52.104;6.304;2023-02-21T13:06:18;9.60;98.40
16412;DHT22;8315;52.104;6.304;2023-02-21T13:08:50;9.60;98.40
16412;DHT22;8315;52.104;6.304;2023-02-21T13:11:23;9.60;98.40
16412;DHT22;8315;52.104;6.304;2023-02-21T13:13:52;9.60;98.40
16412;DHT22;8315;52.104;6.304;2023-02-21T13:16:21;9.60;98.40
16412;DHT22;8315;52.104;6.304;2023-02-21T13:18:48;9.50;98.40
16412;DHT22;8315;52.104;6.304;2023-02-21T13:21:32;9.60;98.40
16412;DHT22;8315;52.104;6.304;2023-02-21T13:30:19;9.60;98.40
16412;DHT22;8315;52.104;6.304;2023-02-21T13:32:51;9.60;98.40
16412;DHT22;8315;52.104;6.304;2023-02-21T13:35:20;9.60;98.40
16412;DHT22;8315;52.104;6.304;2023-02-21T13:37:51;9.50;98.40
16412;DHT22;8315;52.104;6.304;2023-02-21T13:40:19;9.50;98.40
16412;DHT22;8315;52.104;6.304;2023-02-21T13:42:57;9.40;98.40
16412;DHT22;8315;52.104;6.304;2023-02-21T13:45:25;9.50;98.40
16412;DHT22;8315;52.104;6.304;2023-02-21T13:50:48;9.50;98.40
16412;DHT22;8315;52.104;6.304;2023-02-21T13:53:16;9.50;98.40
16412;DHT22;8315;52.104;6.304;2023-02-21T13:58:51;9.40;98.40
16412;DHT22;8315;52.104;6.304;2023-02-21T14:01:22;9.40;98.40
16412;DHT22;8315;52.104;6.304;2023-02-21T14:07:31;9.40;98.40
16412;DHT22;8315;52.104;6.304;2023-02-21T14:10:11;9.40;98.40
16412;DHT22;8315;52.104;6.304;2023-02-21T14:12:43;9.40;98.40
16412;DHT22;8315;52.104;6.304;2023-02-21T14:15:10;9.40;98.40
16412;DHT22;8315;52.104;6.304;2023-02-21T14:17:38;9.40;98.40
16412;DHT22;8315;52.104;6.304;2023-02-21T14:20:13;9.50;98.40
16412;DHT22;8315;52.104;6.304;2023-02-21T14:22:41;9.50;98.40
16412;DHT22;8315;52.104;6.304;2023-02-21T14:25:14;9.60;98.40
16412;DHT22;8315;52.104;6.304;2023-02-21T14:27:42;9.60;98.40
16412;DHT22;8315;52.104;6.304;2023-02-21T14:30:23;9.50;98.40
16412;DHT22;8315;52.104;6.304;2023-02-21T14:32:53;9.50;98.40
16412;DHT22;8315;52.104;6.304;2023-02-21T14:35:24;9.60;98.40
16412;DHT22;8315;52.104;6.304;2023-02-21T14:37:57;9.60;98.40
16412;DHT22;8315;52.104;6.304;2023-02-21T14:40:28;9.60;98.40
16412;DHT22;8315;52.104;6.304;2023-02-21T14:45:56;9.50;98.40
16412;DHT22;8315;52.104;6.304;2023-02-21T14:48:35;9.50;98.40
16412;DHT22;8315;52.104;6.304;2023-02-21T14:51:29;9.50;98.40
16412;DHT22;8315;52.104;6.304;2023-02-21T14:54:18;9.50;98.40
16412;DHT22;8315;52.104;6.304;2023-02-21T14:57:05;9.50;98.40
16412;DHT22;8315;52.104;6.304;2023-02-21T14:59:44;9.60;98.40
16412;DHT22;8315;52.104;6.304;2023-02-21T15:02:24;9.60;98.40
16412;DHT22;8315;52.104;6.304;2023-02-21T15:04:54;9.60;98.40
16412;DHT22;8315;52.104;6.304;2023-02-21T15:07:30;9.60;98.40
16412;DHT22;8315;52.104;6.304;2023-02-21T15:10:13;9.60;98.40
16412;DHT22;8315;52.104;6.304;2023-02-21T15:12:42;9.50;98.40
16412;DHT22;8315;52.104;6.304;2023-02-21T15:15:14;9.50;98.40
16412;DHT22;8315;52.104;6.304;2023-02-21T15:17:44;9.60;98.40
16412;DHT22;8315;52.104;6.304;2023-02-21T15:20:13;9.50;98.40
16412;DHT22;8315;52.104;6.304;2023-02-21T15:22:42;9.50;98.40
16412;DHT22;8315;52.104;6.304;2023-02-21T15:25:14;9.60;98.40
16412;DHT22;8315;52.104;6.304;2023-02-21T15:27:56;9.60;98.40
16412;DHT22;8315;52.104;6.304;2023-02-21T15:30:34;9.50;98.40
16412;DHT22;8315;52.104;6.304;2023-02-21T15:33:06;9.60;98.40
16412;DHT22;8315;52.104;6.304;2023-02-21T15:35:37;9.60;98.40
16412;DHT22;8315;52.104;6.304;2023-02-21T15:38:08;9.50;98.40
16412;DHT22;8315;52.104;6.304;2023-02-21T15:40:38;9.50;98.40
16412;DHT22;8315;52.104;6.304;2023-02-21T15:43:05;9.60;98.40
16412;DHT22;8315;52.104;6.304;2023-02-21T15:45:34;9.60;98.40
16412;DHT22;8315;52.104;6.304;2023-02-21T15:48:03;9.70;98.40
16412;DHT22;8315;52.104;6.304;2023-02-21T15:50:31;9.60;98.40
16412;DHT22;8315;52.104;6.304;2023-02-21T15:53:12;9.60;98.40
16412;DHT22;8315;52.104;6.304;2023-02-21T15:55:40;9.60;98.40
16412;DHT22;8315;52.104;6.304;2023-02-21T15:58:13;9.60;98.40
16412;DHT22;8315;52.104;6.304;2023-02-21T16:00:46;9.60;98.40
16412;DHT22;8315;52.104;6.304;2023-02-21T16:03:27;9.60;98.40
16412;DHT22;8315;52.104;6.304;2023-02-21T16:06:07;9.60;98.40
16412;DHT22;8315;52.104;6.304;2023-02-21T16:08:38;9.60;98.40
16412;DHT22;8315;52.104;6.304;2023-02-21T16:11:06;9.60;98.40
16412;DHT22;8315;52.104;6.304;2023-02-21T16:13:34;9.70;98.40
16412;DHT22;8315;52.104;6.304;2023-02-21T16:16:01;9.70;98.40
16412;DHT22;8315;52.104;6.304;2023-02-21T16:18:29;9.70;98.40
16412;DHT22;8315;52.104;6.304;2023-02-21T16:20:57;9.70;98.40
16412;DHT22;8315;52.104;6.304;2023-02-21T16:23:30;9.70;98.40
16412;DHT22;8315;52.104;6.304;2023-02-21T16:25:59;9.70;98.40
16412;DHT22;8315;52.104;6.304;2023-02-21T16:28:28;9.70;98.40
16412;DHT22;8315;52.104;6.304;2023-02-21T16:30:55;9.70;98.40
16412;DHT22;8315;52.104;6.304;2023-02-21T16:33:25;9.70;98.40
16412;DHT22;8315;52.104;6.304;2023-02-21T16:35:52;9.70;98.40
16412;DHT22;8315;52.104;6.304;2023-02-21T16:38:20;9.70;98.40
16412;DHT22;8315;52.104;6.304;2023-02-21T16:40:48;9.60;98.40
16412;DHT22;8315;52.104;6.304;2023-02-21T16:43:17;9.60;98.40
16412;DHT22;8315;52.104;6.304;2023-02-21T16:45:45;9.60;98.40
16412;DHT22;8315;52.104;6.304;2023-02-21T16:48:14;9.60;98.40
16412;DHT22;8315;52.104;6.304;2023-02-21T16:50:45;9.60;98.40
16412;DHT22;8315;52.104;6.304;2023-02-21T16:53:12;9.60;98.40
16412;DHT22;8315;52.104;6.304;2023-02-21T16:55:39;9.60;98.40
16412;DHT22;8315;52.104;6.304;2023-02-21T16:58:07;9.70;98.40
16412;DHT22;8315;52.104;6.304;2023-02-21T17:00:45;9.60;98.40
16412;DHT22;8315;52.104;6.304;2023-02-21T17:03:12;9.60;98.40